sensor_id;sensor_type;location;lat;lon;timestamp;P1;durP1;ratioP1;P2;durP2;ratioP2
25950;SDS011;13748;52.240;6.002;2022-12-08T00:01:11;17.13;;;10.33;;
25950;SDS011;13748;52.240;6.002;2022-12-08T00:03:40;15.30;;;9.90;;
25950;SDS011;13748;52.240;6.002;2022-12-08T00:06:41;16.90;;;10.03;;
25950;SDS011;13748;52.240;6.002;2022-12-08T00:09:30;18.53;;;10.70;;
25950;SDS011;13748;52.240;6.002;2022-12-08T00:12:08;17.57;;;10.37;;
25950;SDS011;13748;52.240;6.002;2022-12-08T00:14:40;16.50;;;9.67;;
25950;SDS011;13748;52.240;6.002;2022-12-08T00:17:09;16.87;;;9.53;;
25950;SDS011;13748;52.240;6.002;2022-12-08T00:19:37;20.60;;;10.17;;
25950;SDS011;13748;52.240;6.002;2022-12-08T00:22:06;18.53;;;10.33;;
25950;SDS011;13748;52.240;6.002;2022-12-08T00:24:34;15.93;;;9.90;;
25950;SDS011;13748;52.240;6.002;2022-12-08T00:27:05;19.30;;;10.27;;
25950;SDS011;13748;52.240;6.002;2022-12-08T00:29:33;20.63;;;10.90;;
25950;SDS011;13748;52.240;6.002;2022-12-08T00:32:00;16.67;;;10.20;;
25950;SDS011;13748;52.240;6.002;2022-12-08T00:34:27;17.63;;;10.10;;
25950;SDS011;13748;52.240;6.002;2022-12-08T00:36:53;17.70;;;10.83;;
25950;SDS011;13748;52.240;6.002;2022-12-08T00:39:20;19.33;;;11.83;;
25950;SDS011;13748;52.240;6.002;2022-12-08T00:41:47;18.43;;;11.23;;
25950;SDS011;13748;52.240;6.002;2022-12-08T00:44:32;20.03;;;11.40;;
25950;SDS011;13748;52.240;6.002;2022-12-08T00:46:59;16.17;;;11.07;;
25950;SDS011;13748;52.240;6.002;2022-12-08T00:49:26;16.93;;;12.13;;
25950;SDS011;13748;52.240;6.002;2022-12-08T00:51:53;20.93;;;11.87;;
25950;SDS011;13748;52.240;6.002;2022-12-08T00:54:20;18.90;;;11.73;;
25950;SDS011;13748;52.240;6.002;2022-12-08T00:56:48;21.90;;;12.20;;
25950;SDS011;13748;52.240;6.002;2022-12-08T00:59:15;17.03;;;12.83;;
25950;SDS011;13748;52.240;6.002;2022-12-08T01:01:44;20.30;;;11.70;;
25950;SDS011;13748;52.240;6.002;2022-12-08T01:04:13;21.97;;;13.60;;
25950;SDS011;13748;52.240;6.002;2022-12-08T01:06:41;17.10;;;12.27;;
25950;SDS011;13748;52.240;6.002;2022-12-08T01:09:09;17.90;;;12.90;;
25950;SDS011;13748;52.240;6.002;2022-12-08T01:11:37;19.50;;;13.43;;
25950;SDS011;13748;52.240;6.002;2022-12-08T01:14:04;20.17;;;13.23;;
25950;SDS011;13748;52.240;6.002;2022-12-08T01:16:32;17.83;;;14.23;;
25950;SDS011;13748;52.240;6.002;2022-12-08T01:19:00;31.93;;;15.83;;
25950;SDS011;13748;52.240;6.002;2022-12-08T01:21:28;24.77;;;16.50;;
25950;SDS011;13748;52.240;6.002;2022-12-08T01:23:55;25.40;;;14.90;;
25950;SDS011;13748;52.240;6.002;2022-12-08T01:26:25;24.80;;;15.40;;
25950;SDS011;13748;52.240;6.002;2022-12-08T01:28:51;24.37;;;15.13;;
25950;SDS011;13748;52.240;6.002;2022-12-08T01:31:19;24.20;;;14.63;;
25950;SDS011;13748;52.240;6.002;2022-12-08T01:33:46;22.13;;;15.07;;
25950;SDS011;13748;52.240;6.002;2022-12-08T01:36:23;21.67;;;15.57;;
25950;SDS011;13748;52.240;6.002;2022-12-08T01:38:55;27.13;;;15.67;;
25950;SDS011;13748;52.240;6.002;2022-12-08T01:41:25;22.13;;;15.40;;
25950;SDS011;13748;52.240;6.002;2022-12-08T01:44:45;26.33;;;16.53;;
25950;SDS011;13748;52.240;6.002;2022-12-08T01:46:49;28.37;;;17.17;;
25950;SDS011;13748;52.240;6.002;2022-12-08T01:49:22;24.27;;;16.30;;
25950;SDS011;13748;52.240;6.002;2022-12-08T01:51:57;26.60;;;16.30;;
25950;SDS011;13748;52.240;6.002;2022-12-08T01:54:39;29.03;;;16.73;;
25950;SDS011;13748;52.240;6.002;2022-12-08T01:57:33;24.77;;;17.07;;
25950;SDS011;13748;52.240;6.002;2022-12-08T02:00:11;27.00;;;17.33;;
25950;SDS011;13748;52.240;6.002;2022-12-08T02:02:53;24.70;;;17.17;;
25950;SDS011;13748;52.240;6.002;2022-12-08T02:05:28;27.27;;;18.77;;
25950;SDS011;13748;52.240;6.002;2022-12-08T02:07:59;26.03;;;17.77;;
25950;SDS011;13748;52.240;6.002;2022-12-08T02:10:30;23.87;;;18.27;;
25950;SDS011;13748;52.240;6.002;2022-12-08T02:13:00;25.63;;;17.97;;
25950;SDS011;13748;52.240;6.002;2022-12-08T02:15:35;31.00;;;18.83;;
25950;SDS011;13748;52.240;6.002;2022-12-08T02:21:03;29.03;;;19.30;;
25950;SDS011;13748;52.240;6.002;2022-12-08T02:23:33;30.60;;;19.17;;
25950;SDS011;13748;52.240;6.002;2022-12-08T02:38:48;27.80;;;17.97;;
25950;SDS011;13748;52.240;6.002;2022-12-08T02:44:19;26.00;;;16.93;;
25950;SDS011;13748;52.240;6.002;2022-12-08T02:46:57;21.90;;;15.70;;
25950;SDS011;13748;52.240;6.002;2022-12-08T02:49:34;20.27;;;14.80;;
25950;SDS011;13748;52.240;6.002;2022-12-08T02:55:00;21.33;;;14.57;;
25950;SDS011;13748;52.240;6.002;2022-12-08T03:06:08;21.67;;;14.37;;
25950;SDS011;13748;52.240;6.002;2022-12-08T03:14:37;21.87;;;14.53;;
25950;SDS011;13748;52.240;6.002;2022-12-08T03:17:12;23.03;;;13.97;;
25950;SDS011;13748;52.240;6.002;2022-12-08T03:19:40;19.70;;;13.50;;
25950;SDS011;13748;52.240;6.002;2022-12-08T03:22:08;18.93;;;12.43;;
25950;SDS011;13748;52.240;6.002;2022-12-08T03:24:39;21.23;;;13.80;;
25950;SDS011;13748;52.240;6.002;2022-12-08T03:27:10;19.67;;;13.63;;
25950;SDS011;13748;52.240;6.002;2022-12-08T03:29:40;21.97;;;13.30;;
25950;SDS011;13748;52.240;6.002;2022-12-08T03:32:08;18.67;;;12.93;;
25950;SDS011;13748;52.240;6.002;2022-12-08T03:34:55;20.43;;;12.97;;
25950;SDS011;13748;52.240;6.002;2022-12-08T03:37:25;22.93;;;14.23;;
25950;SDS011;13748;52.240;6.002;2022-12-08T03:39:52;21.27;;;14.23;;
25950;SDS011;13748;52.240;6.002;2022-12-08T03:42:19;22.93;;;14.70;;
25950;SDS011;13748;52.240;6.002;2022-12-08T03:44:46;24.33;;;14.63;;
25950;SDS011;13748;52.240;6.002;2022-12-08T03:47:12;24.73;;;15.53;;
25950;SDS011;13748;52.240;6.002;2022-12-08T03:49:39;23.80;;;14.40;;
25950;SDS011;13748;52.240;6.002;2022-12-08T03:52:07;23.40;;;14.30;;
25950;SDS011;13748;52.240;6.002;2022-12-08T03:54:33;21.73;;;14.77;;
25950;SDS011;13748;52.240;6.002;2022-12-08T03:57:00;27.03;;;15.13;;
25950;SDS011;13748;52.240;6.002;2022-12-08T03:59:27;21.03;;;13.63;;
25950;SDS011;13748;52.240;6.002;2022-12-08T04:01:54;27.47;;;14.57;;
25950;SDS011;13748;52.240;6.002;2022-12-08T04:04:20;23.77;;;15.07;;
25950;SDS011;13748;52.240;6.002;2022-12-08T04:06:48;23.40;;;15.20;;
25950;SDS011;13748;52.240;6.002;2022-12-08T04:09:15;23.77;;;14.20;;
25950;SDS011;13748;52.240;6.002;2022-12-08T04:11:42;23.63;;;14.37;;
25950;SDS011;13748;52.240;6.002;2022-12-08T04:14:09;23.97;;;14.70;;
25950;SDS011;13748;52.240;6.002;2022-12-08T04:16:36;23.87;;;14.17;;
25950;SDS011;13748;52.240;6.002;2022-12-08T04:19:02;24.97;;;14.70;;
25950;SDS011;13748;52.240;6.002;2022-12-08T04:21:29;27.53;;;14.60;;
25950;SDS011;13748;52.240;6.002;2022-12-08T04:23:56;26.17;;;15.37;;
25950;SDS011;13748;52.240;6.002;2022-12-08T04:26:27;22.33;;;13.57;;
25950;SDS011;13748;52.240;6.002;2022-12-08T04:28:53;20.20;;;13.00;;
25950;SDS011;13748;52.240;6.002;2022-12-08T04:31:20;24.37;;;14.20;;
25950;SDS011;13748;52.240;6.002;2022-12-08T04:33:48;19.63;;;13.03;;
25950;SDS011;13748;52.240;6.002;2022-12-08T04:36:15;19.87;;;12.83;;
25950;SDS011;13748;52.240;6.002;2022-12-08T04:38:42;22.10;;;13.53;;
25950;SDS011;13748;52.240;6.002;2022-12-08T04:41:08;22.93;;;13.03;;
25950;SDS011;13748;52.240;6.002;2022-12-08T04:43:35;20.33;;;13.60;;
25950;SDS011;13748;52.240;6.002;2022-12-08T04:46:06;21.80;;;13.00;;
25950;SDS011;13748;52.240;6.002;2022-12-08T04:48:35;18.73;;;11.67;;
25950;SDS011;13748;52.240;6.002;2022-12-08T04:51:03;15.33;;;9.27;;
25950;SDS011;13748;52.240;6.002;2022-12-08T04:53:30;15.87;;;9.47;;
25950;SDS011;13748;52.240;6.002;2022-12-08T04:55:57;17.47;;;9.67;;
25950;SDS011;13748;52.240;6.002;2022-12-08T04:58:24;15.00;;;8.80;;
25950;SDS011;13748;52.240;6.002;2022-12-08T05:00:51;16.87;;;9.90;;
25950;SDS011;13748;52.240;6.002;2022-12-08T05:03:17;15.03;;;9.37;;
25950;SDS011;13748;52.240;6.002;2022-12-08T05:05:53;14.07;;;9.23;;
25950;SDS011;13748;52.240;6.002;2022-12-08T05:08:20;17.37;;;9.53;;
25950;SDS011;13748;52.240;6.002;2022-12-08T05:10:46;15.63;;;9.67;;
25950;SDS011;13748;52.240;6.002;2022-12-08T05:13:13;15.97;;;9.90;;
25950;SDS011;13748;52.240;6.002;2022-12-08T05:15:40;18.33;;;10.23;;
25950;SDS011;13748;52.240;6.002;2022-12-08T05:18:07;14.60;;;10.10;;
25950;SDS011;13748;52.240;6.002;2022-12-08T05:20:34;17.50;;;10.83;;
25950;SDS011;13748;52.240;6.002;2022-12-08T05:23:01;17.17;;;10.03;;
25950;SDS011;13748;52.240;6.002;2022-12-08T05:25:28;18.50;;;11.27;;
25950;SDS011;13748;52.240;6.002;2022-12-08T05:27:54;16.30;;;10.70;;
25950;SDS011;13748;52.240;6.002;2022-12-08T05:30:41;16.87;;;10.07;;
25950;SDS011;13748;52.240;6.002;2022-12-08T05:33:09;17.00;;;10.50;;
25950;SDS011;13748;52.240;6.002;2022-12-08T05:35:36;16.83;;;10.37;;
25950;SDS011;13748;52.240;6.002;2022-12-08T05:38:02;13.90;;;9.63;;
25950;SDS011;13748;52.240;6.002;2022-12-08T05:40:30;16.63;;;9.10;;
25950;SDS011;13748;52.240;6.002;2022-12-08T05:42:57;14.43;;;9.27;;
25950;SDS011;13748;52.240;6.002;2022-12-08T05:45:23;15.73;;;8.30;;
25950;SDS011;13748;52.240;6.002;2022-12-08T05:47:51;12.20;;;7.77;;
25950;SDS011;13748;52.240;6.002;2022-12-08T05:50:18;10.87;;;7.50;;
25950;SDS011;13748;52.240;6.002;2022-12-08T05:52:45;11.50;;;7.57;;
25950;SDS011;13748;52.240;6.002;2022-12-08T05:55:12;14.83;;;6.63;;
25950;SDS011;13748;52.240;6.002;2022-12-08T05:57:39;11.50;;;7.03;;
25950;SDS011;13748;52.240;6.002;2022-12-08T06:00:08;10.43;;;6.87;;
25950;SDS011;13748;52.240;6.002;2022-12-08T06:02:35;9.57;;;6.90;;
25950;SDS011;13748;52.240;6.002;2022-12-08T06:05:02;10.70;;;6.80;;
25950;SDS011;13748;52.240;6.002;2022-12-08T06:07:29;12.77;;;6.67;;
25950;SDS011;13748;52.240;6.002;2022-12-08T06:09:56;12.97;;;7.03;;
25950;SDS011;13748;52.240;6.002;2022-12-08T06:12:22;9.13;;;6.53;;
25950;SDS011;13748;52.240;6.002;2022-12-08T06:14:49;11.93;;;6.37;;
25950;SDS011;13748;52.240;6.002;2022-12-08T06:17:16;8.40;;;6.27;;
25950;SDS011;13748;52.240;6.002;2022-12-08T06:19:43;9.23;;;5.77;;
25950;SDS011;13748;52.240;6.002;2022-12-08T06:22:09;7.73;;;5.33;;
25950;SDS011;13748;52.240;6.002;2022-12-08T06:24:36;7.40;;;5.73;;
25950;SDS011;13748;52.240;6.002;2022-12-08T06:27:03;9.43;;;6.10;;
25950;SDS011;13748;52.240;6.002;2022-12-08T06:29:29;12.13;;;6.20;;
25950;SDS011;13748;52.240;6.002;2022-12-08T06:31:59;6.67;;;5.03;;
25950;SDS011;13748;52.240;6.002;2022-12-08T06:34:26;6.30;;;4.77;;
25950;SDS011;13748;52.240;6.002;2022-12-08T06:36:52;5.70;;;4.87;;
25950;SDS011;13748;52.240;6.002;2022-12-08T06:39:19;7.97;;;5.00;;
25950;SDS011;13748;52.240;6.002;2022-12-08T06:41:46;6.03;;;4.23;;
25950;SDS011;13748;52.240;6.002;2022-12-08T06:44:31;7.67;;;4.10;;
25950;SDS011;13748;52.240;6.002;2022-12-08T06:46:58;6.30;;;4.10;;
25950;SDS011;13748;52.240;6.002;2022-12-08T06:49:25;5.00;;;4.50;;
25950;SDS011;13748;52.240;6.002;2022-12-08T06:51:51;7.53;;;4.70;;
25950;SDS011;13748;52.240;6.002;2022-12-08T06:54:18;7.00;;;4.80;;
25950;SDS011;13748;52.240;6.002;2022-12-08T06:56:45;8.37;;;4.80;;
25950;SDS011;13748;52.240;6.002;2022-12-08T06:59:11;6.40;;;4.60;;
25950;SDS011;13748;52.240;6.002;2022-12-08T07:01:38;8.67;;;5.10;;
25950;SDS011;13748;52.240;6.002;2022-12-08T07:04:05;7.50;;;5.30;;
25950;SDS011;13748;52.240;6.002;2022-12-08T07:06:32;8.37;;;5.33;;
25950;SDS011;13748;52.240;6.002;2022-12-08T07:08:58;7.70;;;5.30;;
25950;SDS011;13748;52.240;6.002;2022-12-08T07:11:25;12.07;;;5.70;;
25950;SDS011;13748;52.240;6.002;2022-12-08T07:13:54;9.13;;;5.80;;
25950;SDS011;13748;52.240;6.002;2022-12-08T07:16:22;9.53;;;6.20;;
25950;SDS011;13748;52.240;6.002;2022-12-08T07:18:49;9.87;;;5.73;;
25950;SDS011;13748;52.240;6.002;2022-12-08T07:21:16;9.00;;;5.87;;
25950;SDS011;13748;52.240;6.002;2022-12-08T07:23:46;8.90;;;6.27;;
25950;SDS011;13748;52.240;6.002;2022-12-08T07:26:22;11.17;;;6.80;;
25950;SDS011;13748;52.240;6.002;2022-12-08T07:28:49;12.10;;;7.07;;
25950;SDS011;13748;52.240;6.002;2022-12-08T07:31:19;12.68;;;8.57;;
25950;SDS011;13748;52.240;6.002;2022-12-08T07:33:49;13.30;;;7.30;;
25950;SDS011;13748;52.240;6.002;2022-12-08T07:36:19;13.53;;;7.80;;
25950;SDS011;13748;52.240;6.002;2022-12-08T07:38:46;14.50;;;7.47;;
25950;SDS011;13748;52.240;6.002;2022-12-08T07:41:15;15.23;;;7.93;;
25950;SDS011;13748;52.240;6.002;2022-12-08T07:43:43;18.07;;;8.70;;
25950;SDS011;13748;52.240;6.002;2022-12-08T07:46:11;17.37;;;9.47;;
25950;SDS011;13748;52.240;6.002;2022-12-08T07:48:43;14.37;;;7.63;;
25950;SDS011;13748;52.240;6.002;2022-12-08T07:51:10;15.83;;;8.60;;
25950;SDS011;13748;52.240;6.002;2022-12-08T07:53:42;17.17;;;9.00;;
25950;SDS011;13748;52.240;6.002;2022-12-08T07:56:18;18.23;;;9.97;;
25950;SDS011;13748;52.240;6.002;2022-12-08T07:58:45;14.87;;;8.60;;
25950;SDS011;13748;52.240;6.002;2022-12-08T08:01:25;16.13;;;8.97;;
25950;SDS011;13748;52.240;6.002;2022-12-08T08:03:54;13.50;;;7.47;;
25950;SDS011;13748;52.240;6.002;2022-12-08T08:06:23;16.63;;;8.17;;
25950;SDS011;13748;52.240;6.002;2022-12-08T08:08:50;10.77;;;6.60;;
25950;SDS011;13748;52.240;6.002;2022-12-08T08:11:16;13.43;;;7.23;;
25950;SDS011;13748;52.240;6.002;2022-12-08T08:13:46;12.00;;;6.90;;
25950;SDS011;13748;52.240;6.002;2022-12-08T08:16:13;12.33;;;7.80;;
25950;SDS011;13748;52.240;6.002;2022-12-08T08:18:40;17.73;;;8.87;;
25950;SDS011;13748;52.240;6.002;2022-12-08T08:21:08;14.47;;;8.67;;
25950;SDS011;13748;52.240;6.002;2022-12-08T08:23:55;12.40;;;7.43;;
25950;SDS011;13748;52.240;6.002;2022-12-08T08:26:21;14.50;;;7.77;;
25950;SDS011;13748;52.240;6.002;2022-12-08T08:28:48;11.73;;;7.53;;
25950;SDS011;13748;52.240;6.002;2022-12-08T08:31:15;15.80;;;8.47;;
25950;SDS011;13748;52.240;6.002;2022-12-08T08:33:42;14.53;;;7.47;;
25950;SDS011;13748;52.240;6.002;2022-12-08T08:36:09;10.63;;;6.97;;
25950;SDS011;13748;52.240;6.002;2022-12-08T08:38:36;12.67;;;7.37;;
25950;SDS011;13748;52.240;6.002;2022-12-08T08:41:08;16.30;;;7.53;;
25950;SDS011;13748;52.240;6.002;2022-12-08T08:43:35;13.13;;;7.63;;
25950;SDS011;13748;52.240;6.002;2022-12-08T08:46:04;12.37;;;7.10;;
25950;SDS011;13748;52.240;6.002;2022-12-08T08:48:32;10.40;;;6.60;;
25950;SDS011;13748;52.240;6.002;2022-12-08T08:51:05;12.67;;;7.77;;
25950;SDS011;13748;52.240;6.002;2022-12-08T08:53:36;10.37;;;6.67;;
25950;SDS011;13748;52.240;6.002;2022-12-08T08:56:10;14.10;;;6.97;;
25950;SDS011;13748;52.240;6.002;2022-12-08T08:58:38;11.13;;;7.13;;
25950;SDS011;13748;52.240;6.002;2022-12-08T09:01:05;10.50;;;6.67;;
25950;SDS011;13748;52.240;6.002;2022-12-08T09:03:32;12.90;;;7.17;;
25950;SDS011;13748;52.240;6.002;2022-12-08T09:05:58;12.17;;;7.40;;
25950;SDS011;13748;52.240;6.002;2022-12-08T09:08:25;15.17;;;7.60;;
25950;SDS011;13748;52.240;6.002;2022-12-08T09:10:52;12.43;;;7.27;;
25950;SDS011;13748;52.240;6.002;2022-12-08T09:13:19;10.77;;;7.30;;
25950;SDS011;13748;52.240;6.002;2022-12-08T09:15:47;12.50;;;7.57;;
25950;SDS011;13748;52.240;6.002;2022-12-08T09:18:14;11.33;;;6.63;;
25950;SDS011;13748;52.240;6.002;2022-12-08T09:20:41;11.23;;;7.87;;
25950;SDS011;13748;52.240;6.002;2022-12-08T09:23:07;11.43;;;7.10;;
25950;SDS011;13748;52.240;6.002;2022-12-08T09:25:34;9.33;;;6.27;;
25950;SDS011;13748;52.240;6.002;2022-12-08T09:28:01;8.93;;;6.50;;
25950;SDS011;13748;52.240;6.002;2022-12-08T09:30:28;12.03;;;8.00;;
25950;SDS011;13748;52.240;6.002;2022-12-08T09:32:55;11.63;;;6.10;;
25950;SDS011;13748;52.240;6.002;2022-12-08T09:35:21;11.07;;;7.17;;
25950;SDS011;13748;52.240;6.002;2022-12-08T09:37:48;9.67;;;6.83;;
25950;SDS011;13748;52.240;6.002;2022-12-08T09:40:16;11.40;;;7.90;;
25950;SDS011;13748;52.240;6.002;2022-12-08T09:42:54;11.37;;;6.50;;
25950;SDS011;13748;52.240;6.002;2022-12-08T09:45:28;10.90;;;5.80;;
25950;SDS011;13748;52.240;6.002;2022-12-08T09:48:03;7.70;;;5.77;;
25950;SDS011;13748;52.240;6.002;2022-12-08T09:50:52;9.03;;;6.40;;
25950;SDS011;13748;52.240;6.002;2022-12-08T09:53:28;8.77;;;5.93;;
25950;SDS011;13748;52.240;6.002;2022-12-08T09:56:03;8.40;;;6.63;;
25950;SDS011;13748;52.240;6.002;2022-12-08T09:58:39;9.40;;;5.27;;
25950;SDS011;13748;52.240;6.002;2022-12-08T10:01:11;9.73;;;5.57;;
25950;SDS011;13748;52.240;6.002;2022-12-08T10:03:38;10.00;;;6.80;;
25950;SDS011;13748;52.240;6.002;2022-12-08T10:08:45;8.37;;;6.07;;
25950;SDS011;13748;52.240;6.002;2022-12-08T10:11:30;10.57;;;6.50;;
25950;SDS011;13748;52.240;6.002;2022-12-08T10:14:09;10.00;;;5.97;;
25950;SDS011;13748;52.240;6.002;2022-12-08T10:16:47;9.97;;;5.50;;
25950;SDS011;13748;52.240;6.002;2022-12-08T10:21:52;7.80;;;5.73;;
25950;SDS011;13748;52.240;6.002;2022-12-08T10:26:59;10.73;;;6.17;;
25950;SDS011;13748;52.240;6.002;2022-12-08T10:29:27;10.73;;;6.43;;
25950;SDS011;13748;52.240;6.002;2022-12-08T10:31:57;7.93;;;5.57;;
25950;SDS011;13748;52.240;6.002;2022-12-08T10:34:24;8.40;;;5.10;;
25950;SDS011;13748;52.240;6.002;2022-12-08T10:36:52;9.57;;;5.73;;
25950;SDS011;13748;52.240;6.002;2022-12-08T10:44:32;6.80;;;4.70;;
25950;SDS011;13748;52.240;6.002;2022-12-08T10:47:10;7.20;;;4.80;;
25950;SDS011;13748;52.240;6.002;2022-12-08T10:49:37;6.67;;;4.90;;
25950;SDS011;13748;52.240;6.002;2022-12-08T10:52:22;7.00;;;4.63;;
25950;SDS011;13748;52.240;6.002;2022-12-08T10:54:53;6.47;;;4.47;;
25950;SDS011;13748;52.240;6.002;2022-12-08T10:57:21;8.23;;;5.17;;
25950;SDS011;13748;52.240;6.002;2022-12-08T10:59:48;7.37;;;4.90;;
25950;SDS011;13748;52.240;6.002;2022-12-08T11:02:17;8.93;;;5.50;;
25950;SDS011;13748;52.240;6.002;2022-12-08T11:04:45;6.77;;;4.30;;
25950;SDS011;13748;52.240;6.002;2022-12-08T11:07:18;7.70;;;4.13;;
25950;SDS011;13748;52.240;6.002;2022-12-08T11:09:47;4.77;;;3.77;;
25950;SDS011;13748;52.240;6.002;2022-12-08T11:12:18;4.50;;;3.90;;
25950;SDS011;13748;52.240;6.002;2022-12-08T11:14:50;7.07;;;3.80;;
25950;SDS011;13748;52.240;6.002;2022-12-08T11:17:25;7.33;;;4.40;;
25950;SDS011;13748;52.240;6.002;2022-12-08T11:20:00;5.43;;;3.60;;
25950;SDS011;13748;52.240;6.002;2022-12-08T11:27:33;4.27;;;3.47;;
25950;SDS011;13748;52.240;6.002;2022-12-08T11:33:00;4.00;;;3.00;;
25950;SDS011;13748;52.240;6.002;2022-12-08T11:35:39;4.33;;;2.93;;
25950;SDS011;13748;52.240;6.002;2022-12-08T11:38:10;4.07;;;3.00;;
25950;SDS011;13748;52.240;6.002;2022-12-08T11:40:53;4.53;;;3.20;;
25950;SDS011;13748;52.240;6.002;2022-12-08T11:43:34;6.47;;;3.20;;
25950;SDS011;13748;52.240;6.002;2022-12-08T11:46:11;3.23;;;2.60;;
25950;SDS011;13748;52.240;6.002;2022-12-08T11:49:10;5.40;;;3.40;;
25950;SDS011;13748;52.240;6.002;2022-12-08T11:51:39;6.30;;;4.40;;
25950;SDS011;13748;52.240;6.002;2022-12-08T11:56:53;8.47;;;6.97;;
25950;SDS011;13748;52.240;6.002;2022-12-08T11:59:35;4.20;;;3.67;;
25950;SDS011;13748;52.240;6.002;2022-12-08T12:02:11;7.17;;;5.67;;
25950;SDS011;13748;52.240;6.002;2022-12-08T12:04:55;7.67;;;3.93;;
25950;SDS011;13748;52.240;6.002;2022-12-08T12:07:38;5.30;;;3.37;;
25950;SDS011;13748;52.240;6.002;2022-12-08T12:18:40;4.27;;;3.87;;
25950;SDS011;13748;52.240;6.002;2022-12-08T12:21:17;7.80;;;5.30;;
25950;SDS011;13748;52.240;6.002;2022-12-08T12:23:58;4.43;;;3.97;;
25950;SDS011;13748;52.240;6.002;2022-12-08T12:26:33;3.40;;;3.03;;
25950;SDS011;13748;52.240;6.002;2022-12-08T12:29:04;7.00;;;3.80;;
25950;SDS011;13748;52.240;6.002;2022-12-08T12:31:45;2.93;;;2.63;;
25950;SDS011;13748;52.240;6.002;2022-12-08T12:34:25;3.13;;;2.83;;
25950;SDS011;13748;52.240;6.002;2022-12-08T12:37:07;5.57;;;4.50;;
25950;SDS011;13748;52.240;6.002;2022-12-08T12:39:48;3.90;;;3.40;;
25950;SDS011;13748;52.240;6.002;2022-12-08T12:45:09;3.40;;;2.63;;
25950;SDS011;13748;52.240;6.002;2022-12-08T12:47:46;4.43;;;3.43;;
25950;SDS011;13748;52.240;6.002;2022-12-08T12:53:03;2.47;;;2.20;;
25950;SDS011;13748;52.240;6.002;2022-12-08T13:03:33;3.47;;;2.50;;
25950;SDS011;13748;52.240;6.002;2022-12-08T13:06:01;3.43;;;2.60;;
25950;SDS011;13748;52.240;6.002;2022-12-08T13:08:28;3.60;;;2.70;;
25950;SDS011;13748;52.240;6.002;2022-12-08T13:10:58;6.73;;;3.10;;
25950;SDS011;13748;52.240;6.002;2022-12-08T13:13:29;4.10;;;2.30;;
25950;SDS011;13748;52.240;6.002;2022-12-08T13:18:47;3.80;;;2.57;;
25950;SDS011;13748;52.240;6.002;2022-12-08T13:21:17;7.43;;;2.43;;
25950;SDS011;13748;52.240;6.002;2022-12-08T13:23:46;3.47;;;2.60;;
25950;SDS011;13748;52.240;6.002;2022-12-08T13:26:35;2.43;;;2.23;;
25950;SDS011;13748;52.240;6.002;2022-12-08T13:29:14;4.13;;;2.63;;
25950;SDS011;13748;52.240;6.002;2022-12-08T13:31:46;5.87;;;2.70;;
25950;SDS011;13748;52.240;6.002;2022-12-08T13:34:23;6.10;;;4.07;;
25950;SDS011;13748;52.240;6.002;2022-12-08T13:37:07;4.60;;;3.00;;
25950;SDS011;13748;52.240;6.002;2022-12-08T13:42:56;3.90;;;2.20;;
25950;SDS011;13748;52.240;6.002;2022-12-08T13:45:35;2.30;;;2.03;;
25950;SDS011;13748;52.240;6.002;2022-12-08T13:48:30;4.27;;;1.90;;
25950;SDS011;13748;52.240;6.002;2022-12-08T13:51:26;3.90;;;3.10;;
25950;SDS011;13748;52.240;6.002;2022-12-08T13:54:23;3.83;;;2.53;;
25950;SDS011;13748;52.240;6.002;2022-12-08T13:57:23;2.40;;;1.90;;
25950;SDS011;13748;52.240;6.002;2022-12-08T13:59:58;3.50;;;2.50;;
25950;SDS011;13748;52.240;6.002;2022-12-08T14:02:46;12.33;;;5.00;;
25950;SDS011;13748;52.240;6.002;2022-12-08T14:05:14;9.70;;;4.80;;
25950;SDS011;13748;52.240;6.002;2022-12-08T14:07:50;6.10;;;3.30;;
25950;SDS011;13748;52.240;6.002;2022-12-08T14:10:26;4.43;;;2.27;;
25950;SDS011;13748;52.240;6.002;2022-12-08T14:12:58;3.73;;;3.17;;
25950;SDS011;13748;52.240;6.002;2022-12-08T14:15:28;12.73;;;5.97;;
25950;SDS011;13748;52.240;6.002;2022-12-08T14:18:03;4.40;;;3.10;;
25950;SDS011;13748;52.240;6.002;2022-12-08T14:20:31;7.20;;;4.83;;
25950;SDS011;13748;52.240;6.002;2022-12-08T14:23:19;7.90;;;4.30;;
25950;SDS011;13748;52.240;6.002;2022-12-08T14:25:46;11.43;;;5.73;;
25950;SDS011;13748;52.240;6.002;2022-12-08T14:28:13;9.23;;;6.07;;
25950;SDS011;13748;52.240;6.002;2022-12-08T14:30:40;7.97;;;3.77;;
25950;SDS011;13748;52.240;6.002;2022-12-08T14:33:10;6.30;;;3.20;;
25950;SDS011;13748;52.240;6.002;2022-12-08T14:35:40;3.53;;;2.63;;
25950;SDS011;13748;52.240;6.002;2022-12-08T14:38:13;3.47;;;3.07;;
25950;SDS011;13748;52.240;6.002;2022-12-08T14:40:46;4.47;;;2.83;;
25950;SDS011;13748;52.240;6.002;2022-12-08T14:43:32;6.50;;;2.87;;
25950;SDS011;13748;52.240;6.002;2022-12-08T14:46:19;5.03;;;3.10;;
25950;SDS011;13748;52.240;6.002;2022-12-08T14:48:47;4.13;;;2.80;;
25950;SDS011;13748;52.240;6.002;2022-12-08T14:53:45;6.13;;;3.57;;
25950;SDS011;13748;52.240;6.002;2022-12-08T14:56:21;6.33;;;2.90;;
25950;SDS011;13748;52.240;6.002;2022-12-08T15:01:40;5.23;;;3.43;;
25950;SDS011;13748;52.240;6.002;2022-12-08T15:07:11;8.83;;;3.60;;
25950;SDS011;13748;52.240;6.002;2022-12-08T15:09:40;5.40;;;3.27;;
25950;SDS011;13748;52.240;6.002;2022-12-08T15:14:57;5.53;;;3.57;;
25950;SDS011;13748;52.240;6.002;2022-12-08T15:20:23;8.00;;;5.57;;
25950;SDS011;13748;52.240;6.002;2022-12-08T15:23:00;9.90;;;6.47;;
25950;SDS011;13748;52.240;6.002;2022-12-08T15:25:27;15.60;;;10.87;;
25950;SDS011;13748;52.240;6.002;2022-12-08T15:27:53;13.60;;;9.93;;
25950;SDS011;13748;52.240;6.002;2022-12-08T15:30:22;18.57;;;12.93;;
25950;SDS011;13748;52.240;6.002;2022-12-08T15:32:53;7.43;;;5.27;;
25950;SDS011;13748;52.240;6.002;2022-12-08T15:35:22;7.30;;;6.27;;
25950;SDS011;13748;52.240;6.002;2022-12-08T15:37:49;10.07;;;7.60;;
25950;SDS011;13748;52.240;6.002;2022-12-08T15:40:17;13.87;;;10.27;;
25950;SDS011;13748;52.240;6.002;2022-12-08T15:42:46;9.47;;;8.57;;
25950;SDS011;13748;52.240;6.002;2022-12-08T15:45:14;7.37;;;6.40;;
25950;SDS011;13748;52.240;6.002;2022-12-08T15:47:42;7.77;;;6.80;;
25950;SDS011;13748;52.240;6.002;2022-12-08T15:50:16;8.63;;;5.90;;
25950;SDS011;13748;52.240;6.002;2022-12-08T15:52:45;11.13;;;6.17;;
25950;SDS011;13748;52.240;6.002;2022-12-08T15:55:13;7.83;;;5.27;;
25950;SDS011;13748;52.240;6.002;2022-12-08T15:57:41;14.63;;;10.30;;
25950;SDS011;13748;52.240;6.002;2022-12-08T16:00:31;12.40;;;7.97;;
25950;SDS011;13748;52.240;6.002;2022-12-08T16:03:27;19.47;;;10.70;;
25950;SDS011;13748;52.240;6.002;2022-12-08T16:06:15;20.23;;;12.00;;
25950;SDS011;13748;52.240;6.002;2022-12-08T16:09:04;12.33;;;8.90;;
25950;SDS011;13748;52.240;6.002;2022-12-08T16:11:38;18.90;;;11.17;;
25950;SDS011;13748;52.240;6.002;2022-12-08T16:14:34;24.50;;;14.00;;
25950;SDS011;13748;52.240;6.002;2022-12-08T16:17:21;25.40;;;15.67;;
25950;SDS011;13748;52.240;6.002;2022-12-08T16:19:48;16.23;;;10.63;;
25950;SDS011;13748;52.240;6.002;2022-12-08T16:22:15;22.70;;;13.57;;
25950;SDS011;13748;52.240;6.002;2022-12-08T16:25:04;27.40;;;13.00;;
25950;SDS011;13748;52.240;6.002;2022-12-08T16:27:44;25.03;;;12.50;;
25950;SDS011;13748;52.240;6.002;2022-12-08T16:30:31;18.43;;;10.97;;
25950;SDS011;13748;52.240;6.002;2022-12-08T16:32:59;21.43;;;11.43;;
25950;SDS011;13748;52.240;6.002;2022-12-08T16:35:26;24.63;;;15.60;;
25950;SDS011;13748;52.240;6.002;2022-12-08T16:37:52;25.93;;;15.37;;
25950;SDS011;13748;52.240;6.002;2022-12-08T16:40:19;23.23;;;14.50;;
25950;SDS011;13748;52.240;6.002;2022-12-08T16:42:46;26.90;;;14.70;;